Time,TemperatureF,DewpointF,PressureIn,WindDirection,WindDirectionDegrees,WindSpeedMPH,WindSpeedGustMPH,Humidity,HourlyPrecipIn,Conditions,Clouds,dailyrainin,SoftwareType,DateUTC
2013-03-10 00:02:00,40.1,38.5,27.93,NW,315,2.0,0.0,94,-99.99,,,-99.99,meteohub,2013-03-09 23:02:00,
2013-03-10 00:17:00,40.1,38.5,27.94,North,0,0.0,2.0,94,-99.99,,,-99.99,meteohub,2013-03-09 23:17:00,
2013-03-10 00:32:00,40.1,38.5,27.94,NW,315,0.0,0.0,94,-99.99,,,-99.99,meteohub,2013-03-09 23:32:00,
2013-03-10 00:47:00,40.1,38.5,27.94,NW,315,0.0,0.0,94,-99.99,,,-99.99,meteohub,2013-03-09 23:47:00,
2013-03-10 01:02:00,40.1,38.5,27.93,NW,315,0.0,0.0,94,-99.99,,,-99.99,meteohub,2013-03-10 00:02:00,
2013-03-10 01:17:00,40.1,38.5,27.93,NW,315,0.0,0.0,94,-99.99,,,-99.99,meteohub,2013-03-10 00:17:00,
2013-03-10 01:32:00,40.1,38.5,27.93,South,180,0.0,0.0,94,-99.99,,,-99.99,meteohub,2013-03-10 00:32:00,
2013-03-10 01:47:00,40.1,38.5,27.93,SW,225,0.0,1.0,94,-99.99,,,-99.99,meteohub,2013-03-10 00:47:00,
2013-03-10 02:02:00,39.9,38.3,27.93,South,180,0.0,2.0,94,-99.99,,,-99.99,meteohub,2013-03-10 01:02:00,
2013-03-10 02:17:00,39.9,38.3,27.91,South,180,0.0,0.0,94,-99.99,,,-99.99,meteohub,2013-03-10 01:17:00,
2013-03-10 02:32:00,39.9,38.3,27.91,SSE,158,0.0,0.0,94,-99.99,,,-99.99,meteohub,2013-03-10 01:32:00,
2013-03-10 02:47:00,39.9,38.3,27.91,NE,45,0.0,0.0,94,-99.99,,,-99.99,meteohub,2013-03-10 01:47:00,
2013-03-10 03:02:00,39.9,38.3,27.91,NE,45,0.0,0.0,94,-99.99,,,-99.99,meteohub,2013-03-10 02:02:00,
2013-03-10 03:17:00,39.9,38.3,27.91,NE,45,0.0,0.0,94,-99.99,,,-99.99,meteohub,2013-03-10 02:17:00,
2013-03-10 03:32:00,40.1,38.5,27.91,SE,135,0.0,0.0,94,-99.99,,,-99.99,meteohub,2013-03-10 02:32:00,
2013-03-10 03:47:00,39.9,38.3,27.90,SE,135,0.0,0.0,94,-99.99,,,-99.99,meteohub,2013-03-10 02:47:00,
2013-03-10 04:02:00,39.9,38.3,27.90,South,180,0.0,0.0,94,-99.99,,,-99.99,meteohub,2013-03-10 03:02:00,
2013-03-10 04:18:00,39.9,38.3,27.89,SSE,158,0.0,0.0,94,-99.99,,,-99.99,meteohub,2013-03-10 03:18:00,
2013-03-10 04:33:00,40.1,38.5,27.89,SE,135,2.0,3.0,94,-99.99,,,-99.99,meteohub,2013-03-10 03:33:00,
2013-03-10 04:47:00,40.1,38.5,27.91,South,180,3.0,4.0,94,-99.99,,,-99.99,meteohub,2013-03-10 03:47:00,
2013-03-10 05:02:00,40.1,38.5,27.89,SE,135,0.0,5.0,94,-99.99,,,-99.99,meteohub,2013-03-10 04:02:00,
2013-03-10 05:17:00,40.1,38.5,27.88,SSE,158,0.0,2.0,94,-99.99,,,-99.99,meteohub,2013-03-10 04:17:00,
2013-03-10 05:32:00,40.1,38.5,27.88,South,180,3.0,3.0,94,-99.99,,,-99.99,meteohub,2013-03-10 04:32:00,
2013-03-10 05:47:00,39.9,38.3,27.88,SSE,158,0.0,3.0,94,-99.99,,,-99.99,meteohub,2013-03-10 04:47:00,
2013-03-10 06:02:00,40.1,38.5,27.87,South,180,4.0,4.0,94,-99.99,,,-99.99,meteohub,2013-03-10 05:02:00,
2013-03-10 06:17:00,39.9,38.3,27.87,South,180,3.0,5.0,94,-99.99,,,-99.99,meteohub,2013-03-10 05:17:00,
2013-03-10 06:32:00,39.7,38.1,27.87,WSW,248,0.0,3.0,94,-99.99,,,-99.99,meteohub,2013-03-10 05:32:00,
2013-03-10 06:47:00,39.7,38.1,27.87,South,180,0.0,0.0,94,-99.99,,,-99.99,meteohub,2013-03-10 05:47:00,
2013-03-10 07:02:00,39.7,38.1,27.87,South,180,0.0,4.0,94,-99.99,,,-99.99,meteohub,2013-03-10 06:02:00,
2013-03-10 07:17:00,39.7,38.1,27.87,NW,315,0.0,4.0,94,-99.99,,,-99.99,meteohub,2013-03-10 06:17:00,
2013-03-10 07:32:00,39.7,38.1,27.87,NNW,338,2.0,5.0,94,-99.99,,,-99.99,meteohub,2013-03-10 06:32:00,
2013-03-10 07:47:00,40.6,39.4,27.87,East,90,3.0,5.0,95,-99.99,,,-99.99,meteohub,2013-03-10 06:47:00,
2013-03-10 08:02:00,41.2,39.9,27.87,SW,225,2.0,3.0,95,-99.99,,,-99.99,meteohub,2013-03-10 07:02:00,
2013-03-10 08:17:00,41.9,40.6,27.88,WSW,248,2.0,5.0,95,-99.99,,,-99.99,meteohub,2013-03-10 07:17:00,
2013-03-10 08:32:00,41.9,40.6,27.88,ENE,68,7.0,7.0,95,-99.99,,,-99.99,meteohub,2013-03-10 07:32:00,
2013-03-10 08:47:00,42.1,40.8,27.87,NW,315,0.0,7.0,95,-99.99,,,-99.99,meteohub,2013-03-10 07:47:00,
2013-03-10 09:02:00,42.6,41.4,27.87,WSW,248,6.0,6.0,95,-99.99,,,-99.99,meteohub,2013-03-10 08:02:00,
2013-03-10 09:17:00,42.8,41.5,27.88,South,180,2.0,6.0,95,-99.99,,,-99.99,meteohub,2013-03-10 08:17:00,
2013-03-10 09:32:00,43.0,41.7,27.88,WNW,293,3.0,6.0,95,-99.99,,,-99.99,meteohub,2013-03-10 08:32:00,
2013-03-10 09:47:00,43.3,42.1,27.87,WSW,248,3.0,7.0,95,-99.99,,,-99.99,meteohub,2013-03-10 08:47:00,
2013-03-10 10:02:00,43.9,42.6,27.88,WSW,248,7.0,7.0,95,-99.99,,,-99.99,meteohub,2013-03-10 09:02:00,
2013-03-10 10:17:00,45.3,44.1,27.87,South,180,9.0,9.0,95,-99.99,,,-99.99,meteohub,2013-03-10 09:17:00,
2013-03-10 10:32:00,46.9,45.5,27.87,WSW,248,4.0,11.0,95,-99.99,,,-99.99,meteohub,2013-03-10 09:32:00,
2013-03-10 10:47:00,47.3,45.7,27.88,SSW,203,10.0,10.0,94,-99.99,,,-99.99,meteohub,2013-03-10 09:47:00,
2013-03-10 11:02:00,47.7,45.5,27.88,SW,225,4.0,10.0,92,-99.99,,,-99.99,meteohub,2013-03-10 10:02:00,
2013-03-10 11:17:00,48.7,45.9,27.89,WSW,248,6.0,13.0,90,-99.99,,,-99.99,meteohub,2013-03-10 10:17:00,
2013-03-10 11:32:00,49.6,46.2,27.89,South,180,9.0,11.0,88,-99.99,,,-99.99,meteohub,2013-03-10 10:32:00,
2013-03-10 11:47:00,50.5,45.5,27.89,SW,225,8.0,13.0,83,-99.99,,,-99.99,meteohub,2013-03-10 10:47:00,
2013-03-10 12:02:00,51.1,45.9,27.91,SW,225,10.0,10.0,82,-99.99,,,-99.99,meteohub,2013-03-10 11:02:00,
2013-03-10 12:17:00,51.4,45.1,27.90,West,270,9.0,10.0,79,-99.99,,,-99.99,meteohub,2013-03-10 11:17:00,
2013-03-10 12:32:00,52.0,46.0,27.90,WNW,293,6.0,9.0,80,-99.99,,,-99.99,meteohub,2013-03-10 11:32:00,
2013-03-10 12:47:00,52.2,45.1,27.90,WSW,248,4.0,13.0,77,-99.99,,,-99.99,meteohub,2013-03-10 11:47:00,
2013-03-10 13:02:00,52.3,45.0,27.91,WSW,248,6.0,9.0,76,-99.99,,,-99.99,meteohub,2013-03-10 12:02:00,
2013-03-10 13:17:00,52.9,44.8,27.90,West,270,7.0,13.0,74,-99.99,,,-99.99,meteohub,2013-03-10 12:17:00,
2013-03-10 13:32:00,53.1,44.2,27.90,NW,315,4.0,10.0,72,-99.99,,,-99.99,meteohub,2013-03-10 12:32:00,
2013-03-10 13:47:00,53.6,46.6,27.91,NNW,338,3.0,10.0,77,-99.99,,,-99.99,meteohub,2013-03-10 12:47:00,
2013-03-10 14:02:00,52.9,45.5,27.91,West,270,5.0,14.0,76,-99.99,,,-99.99,meteohub,2013-03-10 13:02:00,
2013-03-10 14:17:00,53.1,44.2,27.91,WSW,248,7.0,10.0,72,-99.99,,,-99.99,meteohub,2013-03-10 13:17:00,
2013-03-10 14:32:00,53.4,43.5,27.91,SW,225,7.0,8.0,69,-99.99,,,-99.99,meteohub,2013-03-10 13:32:00,
2013-03-10 14:47:00,53.8,43.2,27.91,SSW,203,11.0,11.0,67,-99.99,,,-99.99,meteohub,2013-03-10 13:47:00,
2013-03-10 15:02:00,53.6,42.1,27.91,WSW,248,7.0,11.0,65,-99.99,,,-99.99,meteohub,2013-03-10 14:02:00,
2013-03-10 15:17:00,53.4,41.5,27.91,WSW,248,4.0,7.0,64,-99.99,,,-99.99,meteohub,2013-03-10 14:17:00,
2013-03-10 15:32:00,53.2,40.6,27.91,WSW,248,6.0,9.0,62,-99.99,,,-99.99,meteohub,2013-03-10 14:32:00,
2013-03-10 15:47:00,53.6,41.4,27.90,SSW,203,4.0,9.0,63,-99.99,,,-99.99,meteohub,2013-03-10 14:47:00,
2013-03-10 16:02:00,52.9,40.6,27.89,WSW,248,6.0,6.0,63,-99.99,,,-99.99,meteohub,2013-03-10 15:02:00,
2013-03-10 16:17:00,52.9,41.0,27.91,West,270,7.0,7.0,64,-99.99,,,-99.99,meteohub,2013-03-10 15:17:00,
2013-03-10 16:32:00,52.3,39.7,27.91,West,270,7.0,9.0,62,-99.99,,,-99.99,meteohub,2013-03-10 15:32:00,
2013-03-10 16:47:00,52.2,40.3,27.90,WNW,293,6.0,7.0,64,-99.99,,,-99.99,meteohub,2013-03-10 15:47:00,
2013-03-10 17:02:00,51.6,39.9,27.89,NW,315,2.0,6.0,64,-99.99,,,-99.99,meteohub,2013-03-10 16:02:00,
2013-03-10 17:17:00,51.3,40.3,27.89,NW,315,4.0,4.0,66,-99.99,,,-99.99,meteohub,2013-03-10 16:17:00,
2013-03-10 17:32:00,50.9,40.6,27.89,NNE,23,5.0,5.0,68,-99.99,,,-99.99,meteohub,2013-03-10 16:32:00,
2013-03-10 17:47:00,50.2,41.2,27.89,ENE,68,2.0,5.0,71,-99.99,,,-99.99,meteohub,2013-03-10 16:47:00,
2013-03-10 18:02:00,49.3,41.4,27.89,East,90,3.0,3.0,74,-99.99,,,-99.99,meteohub,2013-03-10 17:02:00,
2013-03-10 18:17:00,48.6,41.7,27.88,ENE,68,3.0,4.0,77,-99.99,,,-99.99,meteohub,2013-03-10 17:17:00,
2013-03-10 18:32:00,47.8,41.7,27.88,SE,135,3.0,3.0,79,-99.99,,,-99.99,meteohub,2013-03-10 17:32:00,
2013-03-10 18:47:00,47.3,42.1,27.88,ESE,113,6.0,6.0,82,-99.99,,,-99.99,meteohub,2013-03-10 17:47:00,
2013-03-10 19:02:00,46.9,42.6,27.88,ESE,113,9.0,9.0,85,-99.99,,,-99.99,meteohub,2013-03-10 18:02:00,
2013-03-10 19:17:00,46.6,43.0,27.88,ESE,113,6.0,9.0,87,-99.99,,,-99.99,meteohub,2013-03-10 18:17:00,
2013-03-10 19:32:00,46.4,43.0,27.88,ESE,113,3.0,6.0,88,-99.99,,,-99.99,meteohub,2013-03-10 18:32:00,
2013-03-10 19:47:00,46.4,43.0,27.88,ESE,113,4.0,4.0,88,-99.99,,,-99.99,meteohub,2013-03-10 18:47:00,
2013-03-10 20:02:00,46.2,43.2,27.87,ESE,113,7.0,9.0,89,-99.99,,,-99.99,meteohub,2013-03-10 19:02:00,
2013-03-10 20:17:00,45.7,42.6,27.87,South,180,2.0,7.0,89,-99.99,,,-99.99,meteohub,2013-03-10 19:17:00,
2013-03-10 20:32:00,45.5,42.4,27.87,South,180,2.0,2.0,89,-99.99,,,-99.99,meteohub,2013-03-10 19:32:00,
2013-03-10 20:47:00,45.5,42.8,27.86,SSE,158,2.0,3.0,90,-99.99,,,-99.99,meteohub,2013-03-10 19:47:00,
2013-03-10 21:02:00,45.1,42.4,27.85,South,180,4.0,4.0,90,-99.99,,,-99.99,meteohub,2013-03-10 20:02:00,
2013-03-10 21:17:00,45.0,42.3,27.86,South,180,5.0,5.0,90,-99.99,,,-99.99,meteohub,2013-03-10 20:17:00,
2013-03-10 21:32:00,45.0,41.9,27.86,WSW,248,9.0,11.0,89,-99.99,,,-99.99,meteohub,2013-03-10 20:32:00,
2013-03-10 21:47:00,45.0,41.5,27.86,West,270,6.0,9.0,88,-99.99,,,-99.99,meteohub,2013-03-10 20:47:00,
2013-03-10 22:02:00,45.0,41.5,27.86,SW,225,6.0,8.0,88,-99.99,,,-99.99,meteohub,2013-03-10 21:02:00,
2013-03-10 22:17:00,44.6,41.0,27.85,SW,225,8.0,8.0,87,-99.99,,,-99.99,meteohub,2013-03-10 21:17:00,
2013-03-10 22:32:00,44.2,41.0,27.85,SW,225,6.0,9.0,88,-99.99,,,-99.99,meteohub,2013-03-10 21:32:00,
2013-03-10 22:47:00,44.4,41.2,27.85,SW,225,9.0,11.0,88,-99.99,,,-99.99,meteohub,2013-03-10 21:47:00,
2013-03-10 23:02:00,44.4,41.2,27.85,SSE,158,5.0,18.0,88,-99.99,,,-99.99,meteohub,2013-03-10 22:02:00,
2013-03-10 23:17:00,44.2,41.0,27.84,WNW,293,8.0,10.0,88,-99.99,,,-99.99,meteohub,2013-03-10 22:17:00,
2013-03-10 23:32:00,44.2,41.0,27.84,WSW,248,6.0,8.0,88,-99.99,,,-99.99,meteohub,2013-03-10 22:32:00,
2013-03-10 23:47:00,44.4,41.2,27.85,SW,225,7.0,9.0,88,-99.99,,,-99.99,meteohub,2013-03-10 22:47:00,